createdAt,value
2019-03-22T00:00:48.152Z,7.40
2019-03-22T00:03:53.822Z,7.30
2019-03-22T00:06:59.372Z,7.30
2019-03-22T00:10:05.202Z,7.20
2019-03-22T00:13:10.922Z,7.10
2019-03-22T00:16:16.572Z,7.10
2019-03-22T00:19:22.196Z,7.10
2019-03-22T00:22:27.864Z,7.10
2019-03-22T00:25:33.495Z,7.00
2019-03-22T00:28:39.105Z,7.00
2019-03-22T00:31:44.628Z,7.00
2019-03-22T00:34:50.301Z,7.00
2019-03-22T00:37:55.969Z,6.90
2019-03-22T00:41:01.486Z,7.00
2019-03-22T00:44:07.092Z,7.00
2019-03-22T00:47:12.711Z,7.00
2019-03-22T00:50:18.353Z,7.00
2019-03-22T00:53:23.961Z,7.00
2019-03-22T00:56:29.544Z,6.90
2019-03-22T00:59:35.149Z,6.90
2019-03-22T01:02:40.812Z,6.80
2019-03-22T01:05:46.480Z,6.80
2019-03-22T01:08:52.471Z,6.70
2019-03-22T01:11:58.055Z,6.60
2019-03-22T01:15:04.085Z,6.60
2019-03-22T01:18:09.689Z,6.50
2019-03-22T01:21:15.433Z,6.40
2019-03-22T01:24:21.042Z,6.40
2019-03-22T01:27:26.640Z,6.30
2019-03-22T01:30:34.042Z,6.30
2019-03-22T01:33:39.617Z,6.30
2019-03-22T01:36:45.356Z,6.30
2019-03-22T01:39:51.038Z,6.20
2019-03-22T01:42:59.248Z,6.10
2019-03-22T01:46:04.976Z,6.10
2019-03-22T01:49:10.638Z,6.10
2019-03-22T01:52:16.224Z,6.10
2019-03-22T01:55:21.743Z,6.00
2019-03-22T01:58:27.250Z,6.00
2019-03-22T02:01:32.795Z,6.00
2019-03-22T02:04:38.458Z,6.00
2019-03-22T02:07:44.131Z,5.90
2019-03-22T02:10:49.643Z,5.90
2019-03-22T02:13:55.216Z,5.90
2019-03-22T02:17:00.794Z,5.90
2019-03-22T02:20:07.568Z,5.90
2019-03-22T02:23:13.136Z,5.90
2019-03-22T02:26:18.777Z,5.90
2019-03-22T02:29:25.868Z,5.90
2019-03-22T02:32:31.392Z,5.90
2019-03-22T02:35:37.105Z,5.90
2019-03-22T02:38:42.745Z,5.80
2019-03-22T02:41:48.244Z,5.80
2019-03-22T02:44:53.933Z,5.70
2019-03-22T02:47:59.494Z,5.70
2019-03-22T02:51:05.148Z,5.60
2019-03-22T02:54:10.769Z,5.60
2019-03-22T02:57:16.401Z,5.60
2019-03-22T03:00:22.064Z,5.50
2019-03-22T03:03:27.787Z,5.40
2019-03-22T03:06:33.691Z,5.40
2019-03-22T03:09:39.208Z,5.40
2019-03-22T03:12:44.872Z,5.40
2019-03-22T03:15:50.462Z,5.40
2019-03-22T03:18:55.989Z,5.40
2019-03-22T03:22:01.532Z,5.30
2019-03-22T03:25:09.334Z,5.40
2019-03-22T03:28:14.957Z,5.40
2019-03-22T03:31:20.620Z,5.40
2019-03-22T03:34:26.381Z,5.40
2019-03-22T03:37:32.027Z,5.40
2019-03-22T03:40:37.772Z,5.30
2019-03-22T03:43:43.349Z,5.30
2019-03-22T03:46:48.931Z,5.30
2019-03-22T03:49:54.518Z,5.20
2019-03-22T03:53:00.346Z,5.20
2019-03-22T03:56:07.592Z,5.10
2019-03-22T03:59:13.108Z,5.10
2019-03-22T04:02:19.863Z,5.00
2019-03-22T04:05:27.770Z,5.10
2019-03-22T04:08:34.542Z,5.00
2019-03-22T04:11:40.323Z,5.00
2019-03-22T04:14:45.893Z,4.90
2019-03-22T04:17:51.421Z,4.90
2019-03-22T04:20:57.078Z,4.80
2019-03-22T04:24:02.824Z,4.80
2019-03-22T04:27:08.405Z,4.70
2019-03-22T04:30:14.490Z,4.70
2019-03-22T04:33:20.096Z,4.70
2019-03-22T04:36:25.696Z,4.70
2019-03-22T04:39:31.204Z,4.70
2019-03-22T04:42:36.738Z,4.70
2019-03-22T04:45:43.175Z,4.70
2019-03-22T04:48:49.901Z,4.70
2019-03-22T04:51:56.176Z,4.60
2019-03-22T04:55:02.927Z,4.60
2019-03-22T04:58:09.360Z,4.60
2019-03-22T05:01:16.546Z,4.70
2019-03-22T05:04:24.987Z,4.70
2019-03-22T05:07:30.757Z,4.70
2019-03-22T05:10:38.002Z,4.70
2019-03-22T05:13:45.203Z,4.70
2019-03-22T05:16:53.171Z,4.70
2019-03-22T05:19:59.213Z,4.80
2019-03-22T05:23:05.449Z,4.80
2019-03-22T05:26:12.503Z,4.70
2019-03-22T05:29:29.941Z,4.70
2019-03-22T05:32:26.673Z,4.60
2019-03-22T05:35:32.334Z,4.60
2019-03-22T05:38:37.922Z,4.60
2019-03-22T05:41:43.533Z,4.60
2019-03-22T05:44:49.144Z,4.50
2019-03-22T05:47:54.674Z,4.50
2019-03-22T05:51:00.176Z,4.60
2019-03-22T05:54:05.912Z,4.60
2019-03-22T05:57:13.712Z,4.60
2019-03-22T06:00:18.763Z,4.70
2019-03-22T06:03:24.368Z,4.70
2019-03-22T06:06:30.016Z,4.70
2019-03-22T06:09:35.534Z,4.70
2019-03-22T06:12:41.315Z,4.70
2019-03-22T06:15:46.896Z,4.70
2019-03-22T06:18:52.573Z,4.80
2019-03-22T06:21:58.258Z,4.80
2019-03-22T06:25:04.239Z,4.90
2019-03-22T06:28:09.812Z,4.90
2019-03-22T06:31:15.475Z,4.90
2019-03-22T06:34:21.188Z,5.00
2019-03-22T06:37:26.856Z,5.00
2019-03-22T06:40:32.444Z,5.00
2019-03-22T06:43:38.115Z,5.00
2019-03-22T06:46:43.683Z,5.10
2019-03-22T06:49:49.263Z,5.10
2019-03-22T06:52:56.619Z,5.20
2019-03-22T06:56:02.233Z,5.30
2019-03-22T06:59:07.866Z,5.40
2019-03-22T07:02:13.507Z,5.50
2019-03-22T07:05:19.113Z,5.60
2019-03-22T07:08:24.643Z,5.60
2019-03-22T07:11:31.237Z,5.70
2019-03-22T07:14:36.880Z,5.70
2019-03-22T07:17:42.471Z,5.80
2019-03-22T07:20:49.032Z,5.80
2019-03-22T07:23:56.013Z,5.90
2019-03-22T07:27:01.587Z,6.10
2019-03-22T07:30:18.173Z,6.10
2019-03-22T07:33:15.376Z,6.20
2019-03-22T07:36:20.956Z,6.40
2019-03-22T07:39:26.618Z,6.50
2019-03-22T07:42:32.593Z,6.60
2019-03-22T07:45:39.623Z,6.80
2019-03-22T07:48:45.111Z,6.90
2019-03-22T07:51:50.623Z,7.00
2019-03-22T07:54:56.288Z,7.10
2019-03-22T07:58:02.276Z,7.30
2019-03-22T08:01:07.948Z,7.50
2019-03-22T08:04:13.662Z,7.60
2019-03-22T08:07:19.316Z,7.70
2019-03-22T08:10:26.058Z,7.80
2019-03-22T08:13:33.209Z,8.00
2019-03-22T08:16:38.816Z,8.10
2019-03-22T08:19:44.533Z,8.30
2019-03-22T08:22:50.192Z,8.50
2019-03-22T08:25:55.934Z,8.60
2019-03-22T08:29:01.655Z,8.80
2019-03-22T08:32:07.422Z,9.20
2019-03-22T08:35:13.104Z,9.50
2019-03-22T08:38:18.623Z,9.80
2019-03-22T08:41:24.276Z,9.90
2019-03-22T08:44:29.866Z,10.20
2019-03-22T08:47:35.475Z,10.40
2019-03-22T08:50:41.243Z,10.50
2019-03-22T08:53:55.245Z,10.60
2019-03-22T08:56:54.147Z,10.70
2019-03-22T08:59:59.770Z,10.80
2019-03-22T09:03:05.482Z,10.90
2019-03-22T09:06:11.147Z,11.00
2019-03-22T09:09:16.811Z,11.00
2019-03-22T09:12:22.470Z,11.00
2019-03-22T09:15:40.273Z,11.10
2019-03-22T09:18:35.363Z,11.20
2019-03-22T09:21:40.916Z,11.30
2019-03-22T09:24:46.544Z,11.40
2019-03-22T09:27:52.207Z,11.60
2019-03-22T09:31:09.812Z,11.60
2019-03-22T09:34:05.227Z,11.70
2019-03-22T09:37:10.872Z,11.90
2019-03-22T09:40:16.592Z,12.00
2019-03-22T09:43:22.172Z,12.20
2019-03-22T09:46:27.844Z,12.30
2019-03-22T09:49:33.572Z,12.40
2019-03-22T09:52:39.243Z,12.50
2019-03-22T09:55:44.821Z,12.70
2019-03-22T09:58:50.498Z,12.90
2019-03-22T10:01:56.226Z,13.00
2019-03-22T10:05:01.829Z,13.20
2019-03-22T10:08:07.420Z,13.40
2019-03-22T10:11:13.074Z,13.40
2019-03-22T10:14:21.305Z,13.50
2019-03-22T10:17:25.933Z,13.60
2019-03-22T10:20:31.654Z,13.70
2019-03-22T10:23:37.415Z,13.90
2019-03-22T10:26:43.120Z,14.10
2019-03-22T10:29:48.803Z,14.20
2019-03-22T10:32:54.448Z,14.30
2019-03-22T10:36:00.043Z,14.40
2019-03-22T10:39:08.596Z,14.50
2019-03-22T10:42:14.247Z,14.60
2019-03-22T10:45:19.890Z,14.60
2019-03-22T10:48:25.551Z,14.70
2019-03-22T10:51:31.140Z,14.80
2019-03-22T10:54:36.788Z,14.90
2019-03-22T10:57:46.181Z,14.90
2019-03-22T11:00:51.827Z,14.90
2019-03-22T11:03:57.609Z,14.90
2019-03-22T11:07:03.455Z,14.90
2019-03-22T11:10:12.699Z,14.80
2019-03-22T11:13:17.851Z,14.80
2019-03-22T11:16:23.439Z,14.90
2019-03-22T11:19:29.028Z,15.00
2019-03-22T11:22:34.700Z,15.10
2019-03-22T11:25:40.287Z,15.20
2019-03-22T11:28:45.788Z,15.20
2019-03-22T11:31:51.379Z,15.30
2019-03-22T11:34:57.029Z,15.40
2019-03-22T11:38:02.634Z,15.50
2019-03-22T11:41:08.301Z,15.50
2019-03-22T11:44:13.951Z,15.50
2019-03-22T11:47:19.560Z,15.50
2019-03-22T11:50:25.216Z,15.60
2019-03-22T11:53:30.867Z,15.60
2019-03-22T11:56:36.436Z,15.60
2019-03-22T11:59:42.082Z,15.80
2019-03-22T12:02:47.688Z,15.90
2019-03-22T12:05:53.347Z,16.00
2019-03-22T12:08:59.008Z,16.10
2019-03-22T12:12:04.695Z,16.10
2019-03-22T12:15:10.608Z,16.20
2019-03-22T12:18:16.348Z,16.30
2019-03-22T12:21:21.943Z,16.30
2019-03-22T12:24:27.450Z,16.40
2019-03-22T12:27:36.913Z,16.40
2019-03-22T12:30:42.931Z,16.50
2019-03-22T12:33:50.575Z,16.50
2019-03-22T12:36:56.264Z,16.50
2019-03-22T12:40:01.952Z,16.50
2019-03-22T12:43:07.683Z,16.50
2019-03-22T12:46:13.451Z,16.50
2019-03-22T12:49:18.951Z,16.60
2019-03-22T12:52:24.579Z,16.70
2019-03-22T12:55:30.103Z,16.80
2019-03-22T12:58:36.068Z,16.90
2019-03-22T13:01:41.730Z,17.00
2019-03-22T13:04:47.381Z,17.00
2019-03-22T13:07:53.210Z,17.00
2019-03-22T13:10:58.814Z,17.00
2019-03-22T13:14:04.483Z,16.90
2019-03-22T13:17:10.168Z,16.90
2019-03-22T13:20:15.846Z,17.00
2019-03-22T13:23:21.369Z,17.00
2019-03-22T13:26:27.108Z,17.10
2019-03-22T13:29:32.611Z,17.20
2019-03-22T13:32:38.271Z,17.30
2019-03-22T13:35:43.786Z,17.30
2019-03-22T13:38:49.460Z,17.20
2019-03-22T13:41:55.147Z,17.10
2019-03-22T13:45:00.741Z,17.10
2019-03-22T13:48:06.331Z,17.10
2019-03-22T13:51:12.269Z,17.10
2019-03-22T13:54:17.839Z,17.20
2019-03-22T13:57:23.711Z,17.20
2019-03-22T14:00:31.408Z,17.20
2019-03-22T14:03:37.134Z,17.20
2019-03-22T14:06:42.956Z,17.30
2019-03-22T14:09:48.588Z,17.40
2019-03-22T14:12:54.107Z,17.40
2019-03-22T14:15:59.699Z,17.50
2019-03-22T14:19:05.306Z,17.60
2019-03-22T14:22:10.888Z,17.70
2019-03-22T14:25:16.547Z,17.80
2019-03-22T14:28:22.055Z,17.90
2019-03-22T14:31:27.636Z,18.00
2019-03-22T14:34:33.223Z,18.10
2019-03-22T14:37:38.900Z,18.30
2019-03-22T14:40:44.476Z,18.50
2019-03-22T14:43:50.043Z,18.60
2019-03-22T14:46:55.544Z,18.60
2019-03-22T14:50:01.128Z,18.60
2019-03-22T14:53:06.781Z,18.80
2019-03-22T14:56:13.685Z,19.00
2019-03-22T14:59:19.328Z,19.10
2019-03-22T15:02:24.920Z,19.20
2019-03-22T15:05:30.559Z,19.20
2019-03-22T15:08:36.440Z,19.30
2019-03-22T15:11:42.003Z,19.30
2019-03-22T15:14:57.469Z,19.20
2019-03-22T15:18:40.307Z,19.00
2019-03-22T15:22:23.036Z,18.90
2019-03-22T15:26:00.231Z,18.70
2019-03-22T15:29:27.716Z,18.50
2019-03-22T15:32:51.254Z,18.40
2019-03-22T15:36:22.033Z,18.40
2019-03-22T15:39:44.395Z,18.30
2019-03-22T15:42:50.886Z,18.10
2019-03-22T15:45:56.931Z,18.10
2019-03-22T15:49:03.278Z,18.00
2019-03-22T15:52:09.276Z,18.00
2019-03-22T15:55:15.733Z,18.00
2019-03-22T15:58:21.850Z,18.00
2019-03-22T16:01:27.675Z,17.90
2019-03-22T16:04:33.336Z,17.90
2019-03-22T16:07:38.971Z,17.80
2019-03-22T16:10:44.640Z,17.70
2019-03-22T16:13:50.492Z,17.70
2019-03-22T16:16:56.212Z,17.60
2019-03-22T16:20:01.799Z,17.60
2019-03-22T16:23:07.612Z,17.50
2019-03-22T16:26:13.374Z,17.50
2019-03-22T16:29:18.905Z,17.50
2019-03-22T16:32:24.479Z,17.50
2019-03-22T16:35:30.220Z,17.50
2019-03-22T16:38:35.884Z,17.50
2019-03-22T16:41:41.538Z,17.40
2019-03-22T16:44:47.193Z,17.30
2019-03-22T16:47:52.834Z,17.30
2019-03-22T16:50:58.487Z,17.30
2019-03-22T16:54:04.287Z,17.20
2019-03-22T16:57:10.111Z,17.20
2019-03-22T17:00:16.140Z,17.10
2019-03-22T17:03:21.850Z,17.00
2019-03-22T17:06:27.453Z,16.90
2019-03-22T17:09:33.113Z,16.90
2019-03-22T17:12:38.848Z,16.80
2019-03-22T17:15:44.410Z,16.70
2019-03-22T17:18:49.911Z,16.60
2019-03-22T17:21:55.496Z,16.50
2019-03-22T17:25:01.078Z,16.50
2019-03-22T17:28:09.091Z,16.30
2019-03-22T17:31:15.910Z,16.30
2019-03-22T17:34:23.997Z,16.20
2019-03-22T17:37:30.163Z,16.10
2019-03-22T17:40:36.180Z,16.00
2019-03-22T17:43:42.305Z,15.90
2019-03-22T17:46:47.947Z,15.80
2019-03-22T17:49:53.722Z,15.80
2019-03-22T17:52:59.223Z,15.70
2019-03-22T17:56:05.041Z,15.70
2019-03-22T17:59:11.014Z,15.70
2019-03-22T18:02:16.825Z,15.60
2019-03-22T18:05:22.409Z,15.60
2019-03-22T18:08:28.109Z,15.50
2019-03-22T18:11:33.720Z,15.50
2019-03-22T18:14:41.206Z,15.40
2019-03-22T18:17:46.776Z,15.30
2019-03-22T18:20:52.280Z,15.20
2019-03-22T18:23:57.891Z,15.20
2019-03-22T18:27:03.488Z,15.10
2019-03-22T18:30:09.347Z,15.00
2019-03-22T18:33:14.923Z,15.00
2019-03-22T18:36:20.535Z,14.90
2019-03-22T18:39:26.146Z,14.80
2019-03-22T18:42:31.651Z,14.70
2019-03-22T18:45:37.337Z,14.60
2019-03-22T18:48:42.987Z,14.60
2019-03-22T18:51:48.586Z,14.50
2019-03-22T18:54:54.194Z,14.40
2019-03-22T18:57:59.789Z,14.30
2019-03-22T19:01:05.483Z,14.30
2019-03-22T19:04:11.052Z,14.30
2019-03-22T19:07:17.263Z,14.30
2019-03-22T19:10:22.912Z,14.20
2019-03-22T19:13:30.970Z,14.10
2019-03-22T19:16:37.197Z,14.00
2019-03-22T19:19:43.119Z,13.90
2019-03-22T19:22:48.980Z,13.90
2019-03-22T19:25:54.814Z,13.90
2019-03-22T19:29:00.485Z,13.80
2019-03-22T19:32:13.395Z,13.70
2019-03-22T19:35:14.156Z,13.70
2019-03-22T19:38:19.867Z,13.60
2019-03-22T19:41:25.472Z,13.50
2019-03-22T19:44:31.079Z,13.40
2019-03-22T19:47:38.115Z,13.30
2019-03-22T19:50:43.859Z,13.20
2019-03-22T19:53:49.780Z,13.20
2019-03-22T19:56:55.835Z,13.20
2019-03-22T20:00:01.636Z,13.10
2019-03-22T20:03:07.844Z,13.00
2019-03-22T20:06:13.484Z,13.00
2019-03-22T20:09:19.136Z,12.90
2019-03-22T20:12:25.483Z,12.90
2019-03-22T20:15:31.459Z,12.80
2019-03-22T20:18:37.200Z,12.70
2019-03-22T20:21:43.486Z,12.60
2019-03-22T20:24:49.524Z,12.50
2019-03-22T20:27:55.503Z,12.50
2019-03-22T20:31:01.575Z,12.40
2019-03-22T20:34:07.445Z,12.30
2019-03-22T20:37:13.295Z,12.30
2019-03-22T20:40:19.242Z,12.20
2019-03-22T20:43:24.890Z,12.10
2019-03-22T20:46:30.490Z,12.10
2019-03-22T20:49:36.556Z,12.00
2019-03-22T20:52:42.257Z,12.00
2019-03-22T20:55:48.053Z,11.90
2019-03-22T20:58:53.708Z,11.90
2019-03-22T21:01:59.526Z,11.80
2019-03-22T21:05:05.612Z,11.80
2019-03-22T21:08:11.388Z,11.80
2019-03-22T21:11:17.140Z,11.70
2019-03-22T21:14:22.662Z,11.60
2019-03-22T21:17:28.250Z,11.50
2019-03-22T21:20:33.866Z,11.40
2019-03-22T21:23:39.408Z,11.40
2019-03-22T21:26:45.005Z,11.40
2019-03-22T21:29:50.708Z,11.40
2019-03-22T21:32:56.235Z,11.40
2019-03-22T21:36:01.753Z,11.40
2019-03-22T21:39:08.103Z,11.40
2019-03-22T21:42:13.825Z,11.40
2019-03-22T21:45:19.872Z,11.40
2019-03-22T21:48:26.659Z,11.30
2019-03-22T21:51:36.289Z,11.30
2019-03-22T21:54:42.223Z,11.30
2019-03-22T21:57:48.376Z,11.30
2019-03-22T22:00:54.301Z,11.30
2019-03-22T22:04:00.051Z,11.20
2019-03-22T22:07:05.745Z,11.20
2019-03-22T22:10:11.567Z,11.10
2019-03-22T22:13:17.332Z,11.10
2019-03-22T22:16:22.946Z,11.00
2019-03-22T22:19:28.559Z,11.00
2019-03-22T22:22:34.074Z,10.90
2019-03-22T22:25:39.659Z,10.90
2019-03-22T22:28:45.405Z,10.80
2019-03-22T22:31:53.159Z,10.80
2019-03-22T22:34:58.772Z,10.80
2019-03-22T22:38:04.443Z,10.70
2019-03-22T22:41:10.123Z,10.70
2019-03-22T22:44:15.719Z,10.70
2019-03-22T22:47:21.299Z,10.60
2019-03-22T22:50:26.844Z,10.50
2019-03-22T22:53:32.455Z,10.50
2019-03-22T22:56:38.055Z,10.40
2019-03-22T22:59:43.719Z,10.40
2019-03-22T23:02:49.380Z,10.40
2019-03-22T23:05:55.181Z,10.30
2019-03-22T23:09:00.888Z,10.30
2019-03-22T23:12:06.710Z,10.20
2019-03-22T23:15:12.607Z,10.20
2019-03-22T23:18:18.298Z,10.10
2019-03-22T23:21:24.011Z,10.10
2019-03-22T23:24:29.699Z,10.10
2019-03-22T23:27:35.370Z,10.00
2019-03-22T23:30:41.068Z,9.90
2019-03-22T23:33:46.710Z,9.90
2019-03-22T23:36:52.399Z,9.80
2019-03-22T23:39:57.927Z,9.80
2019-03-22T23:43:03.603Z,9.70
2019-03-22T23:46:09.284Z,9.70
2019-03-22T23:49:14.797Z,9.60
2019-03-22T23:52:20.494Z,9.50
2019-03-22T23:55:26.173Z,9.40
2019-03-22T23:58:31.864Z,9.40
